Western Oslo — LAJH7 — position and weather

sailwx.info

Track history (hours):
 
Tides and Currents Weather Stations Pressure Air Temp Water Temp Dewpoint Dewpoint Depression Visibility Wind Speed Wind Dir Waves Ship Positions

Western Oslo

Last reported at 2018-Feb-12 23:22 UTC. Time now 2018-Feb-22 06:29 UTC.
Position N 35°58' W 005°34'.
Warning: this ship's position is 9 days out of date.

Length 190 m; draft 6.5 m.

Type: Cargo ship. MMSI: 257460000.

Date/timePositionNaut miles runAvg speedWind from/ knotsBaromVisibWave heightAir tempDewpointWater temp
2018-Feb-12 23:22N 35°58' W 005°34'410.8
2018-Feb-12 23:00N 35°59' W 005°29'510.2
2018-Feb-12 22:30N 36°02' W 005°24'5 9.3
2018-Feb-12 22:00N 36°06' W 005°22'1 1.4
2018-Feb-12 21:28N 36°07' W 005°22'0 0.1
2018-Feb-12 20:58N 36°07' W 005°22'0 0.0
2018-Feb-12 20:28N 36°07' W 005°22'0 0.0
2018-Feb-12 19:52N 36°07' W 005°22'0 0.0
2018-Feb-12 19:28N 36°07' W 005°22'0 0.0
2018-Feb-12 18:52N 36°07' W 005°22'0 0.1
2018-Feb-12 18:28N 36°07' W 005°22'0 0.0
2018-Feb-12 17:58N 36°07' W 005°22'0 0.0
2018-Feb-12 17:28N 36°07' W 005°22'0 0.0
2018-Feb-12 16:58N 36°07' W 005°22'0 0.0
2018-Feb-12 16:16N 36°07' W 005°22'0 0.0
2018-Feb-12 15:52N 36°07' W 005°22'0 0.0
2018-Feb-12 15:01N 36°07' W 005°22'0 0.2
2018-Feb-12 14:49N 36°07' W 005°22'0 0.0
2018-Feb-12 14:28N 36°07' W 005°22'0 0.1
2018-Feb-12 13:46N 36°07' W 005°22'0 0.1
2018-Feb-12 13:28N 36°07' W 005°22'0 0.0
2018-Feb-12 12:58N 36°07' W 005°22'0 0.1
2018-Feb-12 12:28N 36°07' W 005°22'0 0.2
2018-Feb-12 11:58N 36°07' W 005°22'0 0.0
2018-Feb-12 11:23N 36°07' W 005°22'0 0.0
2018-Feb-12 10:55N 36°07' W 005°22'0 0.1
2018-Feb-12 10:28N 36°07' W 005°22'0 0.1
2018-Feb-12 09:56N 36°07' W 005°22'0 0.1
2018-Feb-12 09:28N 36°07' W 005°22'0 0.0
2018-Feb-12 08:58N 36°07' W 005°22'0 0.0
2018-Feb-12 08:28N 36°07' W 005°22'0 0.1
2018-Feb-12 07:52N 36°07' W 005°22'0 0.0
2018-Feb-12 07:30N 36°07' W 005°22'0 0.1
2018-Feb-12 07:00N 36°07' W 005°22'1 2.7
2018-Feb-12 06:30N 36°06' W 005°22'4 7.1
2018-Feb-12 06:00N 36°04' W 005°18'5 9.7
2018-Feb-12 05:30N 36°05' W 005°12'  
2018-Feb-05 19:56N 37°14' E 005°12'1 1.0
2018-Feb-05 19:22N 37°14' E 005°12'5 1.3
2018-Feb-05 15:30N 37°09' E 005°10'3 0.9
2018-Feb-05 12:00N 37°06' E 005°08'  
Track history (hours):
 
Tides and Currents Weather Stations Pressure Air Temp Water Temp Dewpoint Dewpoint Depression Visibility Wind Speed Wind Dir Waves Ship Positions

Western Oslo

Last reported at 2018-Feb-12 23:22 UTC. Time now 2018-Feb-22 06:29 UTC.
Position N 35°58' W 005°34'.
Warning: this ship's position is 9 days out of date.

Length 190 m; draft 6.5 m.

Type: Cargo ship. MMSI: 257460000.

Date/timePositionNaut miles runAvg speedWind from/ knotsBaromVisibWave heightAir tempDewpointWater temp
2018-Feb-12 23:22N 35°58' W 005°34'410.8
2018-Feb-12 23:00N 35°59' W 005°29'510.2
2018-Feb-12 22:30N 36°02' W 005°24'5 9.3
2018-Feb-12 22:00N 36°06' W 005°22'1 1.4
2018-Feb-12 21:28N 36°07' W 005°22'0 0.1
2018-Feb-12 20:58N 36°07' W 005°22'0 0.0
2018-Feb-12 20:28N 36°07' W 005°22'0 0.0
2018-Feb-12 19:52N 36°07' W 005°22'0 0.0
2018-Feb-12 19:28N 36°07' W 005°22'0 0.0
2018-Feb-12 18:52N 36°07' W 005°22'0 0.1
2018-Feb-12 18:28N 36°07' W 005°22'0 0.0
2018-Feb-12 17:58N 36°07' W 005°22'0 0.0
2018-Feb-12 17:28N 36°07' W 005°22'0 0.0
2018-Feb-12 16:58N 36°07' W 005°22'0 0.0
2018-Feb-12 16:16N 36°07' W 005°22'0 0.0
2018-Feb-12 15:52N 36°07' W 005°22'0 0.0
2018-Feb-12 15:01N 36°07' W 005°22'0 0.2
2018-Feb-12 14:49N 36°07' W 005°22'0 0.0
2018-Feb-12 14:28N 36°07' W 005°22'0 0.1
2018-Feb-12 13:46N 36°07' W 005°22'0 0.1
2018-Feb-12 13:28N 36°07' W 005°22'0 0.0
2018-Feb-12 12:58N 36°07' W 005°22'0 0.1
2018-Feb-12 12:28N 36°07' W 005°22'0 0.2
2018-Feb-12 11:58N 36°07' W 005°22'0 0.0
2018-Feb-12 11:23N 36°07' W 005°22'0 0.0
2018-Feb-12 10:55N 36°07' W 005°22'0 0.1
2018-Feb-12 10:28N 36°07' W 005°22'0 0.1
2018-Feb-12 09:56N 36°07' W 005°22'0 0.1
2018-Feb-12 09:28N 36°07' W 005°22'0 0.0
2018-Feb-12 08:58N 36°07' W 005°22'0 0.0
2018-Feb-12 08:28N 36°07' W 005°22'0 0.1
2018-Feb-12 07:52N 36°07' W 005°22'0 0.0
2018-Feb-12 07:30N 36°07' W 005°22'0 0.1
2018-Feb-12 07:00N 36°07' W 005°22'1 2.7
2018-Feb-12 06:30N 36°06' W 005°22'4 7.1
2018-Feb-12 06:00N 36°04' W 005°18'5 9.7
2018-Feb-12 05:30N 36°05' W 005°12'  
2018-Feb-05 19:56N 37°14' E 005°12'1 1.0
2018-Feb-05 19:22N 37°14' E 005°12'5 1.3
2018-Feb-05 15:30N 37°09' E 005°10'3 0.9
2018-Feb-05 12:00N 37°06' E 005°08'  

Dump ship's entire track history